Smoke Tree, California
Current Conditions -  °F | °C
As of 5:53 AM on Tuesday 21 Oct 2014 (Local Time) from KPSP Reporting Station
Clear Clear  
Wind Chill: 72°   Ceiling: Unl
Heat Index: 72°   Visibility: 10mi
Dew Point: 54°   Wind: 0mph
Humidity: 53%   Direction: NA
Pressure: 29.83"   Gusts: NA
Location:  33.8563°N, 116.571°W
Report Text: KPSP 211253Z 00000KT 10SM CLR 22/12 A2983 RMK AO2 SLP098 T02220122
Loading
Personal Weather Stations






























Interactive Weather Map
Tropical Storm Tracking
New forecast layout! Learn more

10-Day Weather Forecast

Advertisements
Track Severe Weather on mobile